createdAt,value
2023-04-14T00:00:59.202Z,100334.88
2023-04-14T00:03:45.186Z,100335.75
2023-04-14T00:06:31.282Z,100340.06
2023-04-14T00:09:16.399Z,100333.94
2023-04-14T00:12:01.660Z,100323.88
2023-04-14T00:14:46.961Z,100344.31
2023-04-14T00:17:32.334Z,100328.47
2023-04-14T00:20:17.530Z,100325.88
2023-04-14T00:23:02.403Z,100307.53
2023-04-14T00:25:49.771Z,100341.19
2023-04-14T00:28:35.441Z,100317.38
2023-04-14T00:31:20.465Z,100330.13
2023-04-14T00:34:05.905Z,100329.34
2023-04-14T00:36:51.200Z,100304.34
2023-04-14T00:39:37.017Z,100338.22
2023-04-14T00:42:22.155Z,100337.78
2023-04-14T00:45:07.591Z,100334.56
2023-04-14T00:47:53.250Z,100317.00
2023-04-14T00:50:38.460Z,100313.88
2023-04-14T00:53:23.957Z,100325.72
2023-04-14T00:56:08.981Z,100324.94
2023-04-14T00:58:54.150Z,100319.06
2023-04-14T01:01:40.533Z,100323.66
2023-04-14T01:04:36.726Z,100321.19
2023-04-14T01:07:30.494Z,100325.56
2023-04-14T01:10:16.236Z,100310.59
2023-04-14T01:13:19.678Z,100325.84
2023-04-14T01:16:12.858Z,100318.97
2023-04-14T01:19:02.479Z,100311.19
2023-04-14T01:21:52.365Z,100295.34
2023-04-14T01:24:47.475Z,100283.34
2023-04-14T01:28:05.192Z,100303.84
2023-04-14T01:31:23.427Z,100292.13
2023-04-14T01:34:17.142Z,100296.47
2023-04-14T01:37:06.444Z,100295.47
2023-04-14T01:39:58.332Z,100289.44
2023-04-14T01:42:47.722Z,100287.69
2023-04-14T01:45:38.718Z,100279.38
2023-04-14T01:48:26.166Z,100290.16
2023-04-14T01:51:13.486Z,100277.31
2023-04-14T01:54:01.027Z,100282.50
2023-04-14T01:56:47.888Z,100282.44
2023-04-14T01:59:34.605Z,100279.63
2023-04-14T02:02:21.713Z,100262.69
2023-04-14T02:05:09.870Z,100283.00
2023-04-14T02:07:55.680Z,100272.63
2023-04-14T02:10:45.909Z,100274.44
2023-04-14T02:13:32.565Z,100277.09
2023-04-14T02:16:18.675Z,100278.63
2023-04-14T02:19:05.722Z,100271.69
2023-04-14T02:21:52.379Z,100272.53
2023-04-14T02:24:37.582Z,100266.56
2023-04-14T02:27:48.936Z,100280.47
2023-04-14T02:30:38.874Z,100281.59
2023-04-14T02:33:31.439Z,100283.50
2023-04-14T02:36:20.479Z,100280.91
2023-04-14T02:39:14.304Z,100280.16
2023-04-14T02:42:12.654Z,100276.72
2023-04-14T02:45:05.266Z,100260.91
2023-04-14T02:47:54.281Z,100273.34
2023-04-14T02:50:44.204Z,100267.47
2023-04-14T02:53:29.523Z,100261.59
2023-04-14T02:56:15.545Z,100252.94
2023-04-14T02:59:02.095Z,100256.25
2023-04-14T03:01:50.495Z,100247.88
2023-04-14T03:04:38.944Z,100236.41
2023-04-14T03:07:25.350Z,100243.97
2023-04-14T03:10:12.264Z,100231.38
2023-04-14T03:12:58.786Z,100237.97
2023-04-14T03:15:45.636Z,100237.19
2023-04-14T03:18:32.200Z,100232.84
2023-04-14T03:21:19.193Z,100192.34
2023-04-14T03:24:06.286Z,100232.09
2023-04-14T03:26:58.529Z,100222.56
2023-04-14T03:29:46.686Z,100214.03
2023-04-14T03:32:39.698Z,100227.91
2023-04-14T03:35:25.797Z,100211.72
2023-04-14T03:38:12.391Z,100216.09
2023-04-14T03:41:00.950Z,100205.63
2023-04-14T03:43:48.253Z,100202.13
2023-04-14T03:46:33.453Z,100205.72
2023-04-14T03:49:20.827Z,100198.84
2023-04-14T03:52:10.884Z,100204.13
2023-04-14T03:54:59.620Z,100206.72
2023-04-14T03:57:46.140Z,100198.16
2023-04-14T04:00:31.306Z,100199.34
2023-04-14T04:03:17.782Z,100202.56
2023-04-14T04:06:03.954Z,100193.19
2023-04-14T04:08:49.783Z,100197.44
2023-04-14T04:11:35.871Z,100194.94
2023-04-14T04:14:22.722Z,100186.41
2023-04-14T04:17:09.908Z,100186.88
2023-04-14T04:19:57.362Z,100192.16
2023-04-14T04:22:44.635Z,100189.63
2023-04-14T04:25:32.160Z,100183.66
2023-04-14T04:28:18.088Z,100173.75
2023-04-14T04:31:04.909Z,100183.66
2023-04-14T04:33:51.508Z,100176.97
2023-04-14T04:36:37.847Z,100182.06
2023-04-14T04:39:23.178Z,100176.13
2023-04-14T04:42:08.287Z,100179.63
2023-04-14T04:44:53.672Z,100171.78
2023-04-14T04:47:39.019Z,100170.25
2023-04-14T04:50:24.222Z,100168.44
2023-04-14T04:53:09.002Z,100164.38
2023-04-14T04:55:54.026Z,100164.59
2023-04-14T04:58:39.038Z,100174.97
2023-04-14T05:01:24.089Z,100158.88
2023-04-14T05:04:09.580Z,100164.53
2023-04-14T05:06:54.434Z,100170.47
2023-04-14T05:09:39.617Z,100166.16
2023-04-14T05:12:24.948Z,100166.81
2023-04-14T05:15:10.360Z,100140.81
2023-04-14T05:17:55.310Z,100149.22
2023-04-14T05:20:40.494Z,100166.63
2023-04-14T05:23:25.935Z,100162.31
2023-04-14T05:26:40.238Z,100136.88
2023-04-14T05:29:20.299Z,100148.75
2023-04-14T05:32:05.429Z,100140.00
2023-04-14T05:34:50.839Z,100146.25
2023-04-14T05:37:36.389Z,100152.22
2023-04-14T05:40:22.532Z,100148.63
2023-04-14T05:43:07.783Z,100150.31
2023-04-14T05:45:53.026Z,100125.69
2023-04-14T05:48:38.165Z,100136.28
2023-04-14T05:51:23.113Z,100130.97
2023-04-14T05:54:08.580Z,100143.59
2023-04-14T05:56:54.060Z,100134.94
2023-04-14T05:59:39.086Z,100134.00
2023-04-14T06:02:23.947Z,100123.34
2023-04-14T06:05:09.586Z,100125.00
2023-04-14T06:07:54.727Z,100127.44
2023-04-14T06:10:39.612Z,100119.06
2023-04-14T06:13:24.678Z,100105.72
2023-04-14T06:16:09.508Z,100132.91
2023-04-14T06:18:54.629Z,100117.53
2023-04-14T06:21:40.088Z,100131.53
2023-04-14T06:24:25.374Z,100135.78
2023-04-14T06:27:10.703Z,100131.22
2023-04-14T06:29:59.880Z,100123.38
2023-04-14T06:32:45.043Z,100129.81
2023-04-14T06:35:35.056Z,100133.19
2023-04-14T06:38:20.704Z,100130.19
2023-04-14T06:41:05.834Z,100130.63
2023-04-14T06:43:51.140Z,100122.44
2023-04-14T06:46:36.701Z,100096.97
2023-04-14T06:49:23.862Z,100120.69
2023-04-14T06:52:08.868Z,100108.47
2023-04-14T06:54:54.254Z,100114.69
2023-04-14T06:57:39.344Z,100114.25
2023-04-14T07:00:24.450Z,100109.63
2023-04-14T07:03:09.782Z,100098.94
2023-04-14T07:05:54.916Z,100113.47
2023-04-14T07:08:40.641Z,100109.34
2023-04-14T07:11:25.914Z,100102.69
2023-04-14T07:14:11.168Z,100100.13
2023-04-14T07:16:56.291Z,100094.41
2023-04-14T07:19:41.239Z,100104.06
2023-04-14T07:22:26.523Z,100094.75
2023-04-14T07:25:11.702Z,100080.34
2023-04-14T07:28:03.110Z,100083.16
2023-04-14T07:30:49.471Z,100083.44
2023-04-14T07:33:35.635Z,100064.94
2023-04-14T07:36:21.019Z,100072.56
2023-04-14T07:39:06.444Z,100081.28
2023-04-14T07:41:51.736Z,100068.34
2023-04-14T07:44:36.902Z,100061.50
2023-04-14T07:47:22.256Z,100056.91
2023-04-14T07:50:07.881Z,100060.25
2023-04-14T07:52:52.899Z,100060.22
2023-04-14T07:55:37.817Z,100060.03
2023-04-14T07:58:25.014Z,100051.50
2023-04-14T08:01:11.895Z,100042.56
2023-04-14T08:03:56.941Z,100048.38
2023-04-14T08:06:42.304Z,100031.56
2023-04-14T08:09:27.562Z,100024.78
2023-04-14T08:12:12.908Z,100035.81
2023-04-14T08:15:02.048Z,100044.66
2023-04-14T08:17:51.290Z,100044.94
2023-04-14T08:20:40.144Z,100038.91
2023-04-14T08:23:25.663Z,100045.97
2023-04-14T08:26:11.615Z,100041.13
2023-04-14T08:28:56.841Z,100037.13
2023-04-14T08:31:41.741Z,100044.50
2023-04-14T08:34:28.617Z,100045.25
2023-04-14T08:37:14.005Z,100047.84
2023-04-14T08:39:59.042Z,100048.34
2023-04-14T08:42:45.819Z,100051.25
2023-04-14T08:45:32.567Z,100027.00
2023-04-14T08:48:20.093Z,100040.97
2023-04-14T08:51:13.870Z,100021.94
2023-04-14T08:54:01.550Z,100037.91
2023-04-14T08:56:47.771Z,100029.38
2023-04-14T08:59:33.271Z,100042.47
2023-04-14T09:02:18.936Z,100036.28
2023-04-14T09:05:04.351Z,100040.34
2023-04-14T09:07:49.562Z,100041.03
2023-04-14T09:10:35.961Z,100035.13
2023-04-14T09:13:22.946Z,100039.31
2023-04-14T09:16:09.076Z,100047.63
2023-04-14T09:18:55.220Z,100034.56
2023-04-14T09:21:53.707Z,100037.88
2023-04-14T09:24:39.742Z,100034.31
2023-04-14T09:27:25.275Z,100026.94
2023-04-14T09:30:11.285Z,100044.56
2023-04-14T09:32:56.972Z,100041.22
2023-04-14T09:35:45.902Z,100045.38
2023-04-14T09:38:37.268Z,100043.47
2023-04-14T09:41:23.687Z,100050.69
2023-04-14T09:44:10.005Z,100049.03
2023-04-14T09:47:05.458Z,100048.22
2023-04-14T09:49:59.453Z,100045.69
2023-04-14T09:52:45.082Z,100045.94
2023-04-14T09:55:30.706Z,100056.66
2023-04-14T09:58:22.574Z,100047.16
2023-04-14T10:01:18.475Z,100051.09
2023-04-14T10:04:04.061Z,100055.75
2023-04-14T10:06:49.581Z,100045.38
2023-04-14T10:09:37.832Z,100054.91
2023-04-14T10:12:22.848Z,100059.81
2023-04-14T10:15:09.952Z,100061.69
2023-04-14T10:17:56.438Z,100061.94
2023-04-14T10:20:42.813Z,100064.66
2023-04-14T10:23:28.218Z,100073.94
2023-04-14T10:26:13.816Z,100067.63
2023-04-14T10:28:59.487Z,100072.88
2023-04-14T10:32:00.853Z,100077.50
2023-04-14T10:34:59.821Z,100090.72
2023-04-14T10:37:52.003Z,100080.00
2023-04-14T10:40:47.494Z,100078.94
2023-04-14T10:43:34.523Z,100080.00
2023-04-14T10:46:21.150Z,100073.56
2023-04-14T10:49:06.314Z,100084.69
2023-04-14T10:51:52.161Z,100077.44
2023-04-14T10:55:01.013Z,100061.00
2023-04-14T10:57:46.919Z,100081.78
2023-04-14T11:00:37.610Z,100077.84
2023-04-14T11:03:23.538Z,100089.13
2023-04-14T11:06:12.444Z,100087.75
2023-04-14T11:08:58.310Z,100095.00
2023-04-14T11:11:43.454Z,100083.81
2023-04-14T11:14:31.683Z,100089.22
2023-04-14T11:17:24.466Z,100085.09
2023-04-14T11:20:21.068Z,100087.81
2023-04-14T11:23:06.132Z,100090.53
2023-04-14T11:25:51.747Z,100088.56
2023-04-14T11:28:42.450Z,100077.56
2023-04-14T11:31:27.794Z,100078.78
2023-04-14T11:34:13.172Z,100078.44
2023-04-14T11:36:58.701Z,100075.84
2023-04-14T11:39:44.380Z,100070.00
2023-04-14T11:42:29.359Z,100082.88
2023-04-14T11:45:17.142Z,100071.00
2023-04-14T11:48:04.714Z,100074.19
2023-04-14T11:50:50.127Z,100068.13
2023-04-14T11:53:36.358Z,100071.84
2023-04-14T11:56:21.603Z,100071.72
2023-04-14T11:59:06.581Z,100071.09
2023-04-14T12:01:53.357Z,100078.25
2023-04-14T12:04:38.345Z,100073.47
2023-04-14T12:07:24.182Z,100074.09
2023-04-14T12:10:10.022Z,100050.03
2023-04-14T12:13:05.040Z,100069.91
2023-04-14T12:15:50.696Z,100069.78
2023-04-14T12:18:36.240Z,100066.91
2023-04-14T12:21:21.594Z,100058.38
2023-04-14T12:24:06.979Z,100069.56
2023-04-14T12:26:52.321Z,100057.88
2023-04-14T12:29:37.623Z,100068.59
2023-04-14T12:32:23.107Z,100063.03
2023-04-14T12:35:08.873Z,100066.44
2023-04-14T12:37:53.700Z,100055.38
2023-04-14T12:40:40.423Z,100050.59
2023-04-14T12:43:33.581Z,100051.81
2023-04-14T12:46:28.328Z,100057.94
2023-04-14T12:49:33.354Z,100045.31
2023-04-14T12:52:39.436Z,100048.78
2023-04-14T12:55:29.755Z,100049.66
2023-04-14T12:58:14.807Z,100050.91
2023-04-14T13:00:59.963Z,100035.19
2023-04-14T13:03:45.995Z,100053.03
2023-04-14T13:06:31.303Z,100054.81
2023-04-14T13:09:16.605Z,100043.59
2023-04-14T13:12:01.747Z,100046.59
2023-04-14T13:14:46.986Z,100034.06
2023-04-14T13:17:32.246Z,100035.44
2023-04-14T13:20:17.882Z,100038.53
2023-04-14T13:23:03.243Z,100023.59
2023-04-14T13:25:48.456Z,100007.19
2023-04-14T13:28:33.438Z,100042.94
2023-04-14T13:31:18.522Z,100037.38
2023-04-14T13:34:03.846Z,100028.44
2023-04-14T13:36:48.915Z,100030.41
2023-04-14T13:39:34.214Z,100016.56
2023-04-14T13:42:19.148Z,100012.91
2023-04-14T13:45:04.767Z,100011.84
2023-04-14T13:47:50.129Z,100025.88
2023-04-14T13:50:35.286Z,100015.72
2023-04-14T13:53:20.400Z,100017.94
2023-04-14T13:56:06.330Z,100023.59
2023-04-14T13:58:55.046Z,100040.34
2023-04-14T14:01:40.575Z,100028.28
2023-04-14T14:04:26.389Z,100033.53
2023-04-14T14:07:11.734Z,100020.59
2023-04-14T14:09:56.808Z,100008.31
2023-04-14T14:12:41.689Z,100019.34
2023-04-14T14:15:27.298Z,100016.16
2023-04-14T14:18:13.496Z,100030.38
2023-04-14T14:20:58.865Z,100045.63
2023-04-14T14:23:44.302Z,100032.31
2023-04-14T14:26:29.472Z,100052.28
2023-04-14T14:29:14.456Z,100035.19
2023-04-14T14:31:59.494Z,100034.75
2023-04-14T14:34:47.303Z,100034.75
2023-04-14T14:37:32.321Z,100048.28
2023-04-14T14:40:17.165Z,100031.94
2023-04-14T14:43:02.501Z,100046.34
2023-04-14T14:45:47.550Z,100055.50
2023-04-14T14:48:32.543Z,100063.50
2023-04-14T14:51:17.599Z,100066.84
2023-04-14T14:54:09.880Z,100064.72
2023-04-14T14:56:56.518Z,100061.81
2023-04-14T14:59:42.130Z,100063.75
2023-04-14T15:02:27.466Z,100063.13
2023-04-14T15:05:12.760Z,100062.66
2023-04-14T15:07:58.255Z,100080.03
2023-04-14T15:10:43.423Z,100067.91
2023-04-14T15:13:29.382Z,100073.81
2023-04-14T15:16:14.208Z,100066.69
2023-04-14T15:18:59.245Z,100072.50
2023-04-14T15:21:44.261Z,100082.53
2023-04-14T15:24:29.506Z,100073.13
2023-04-14T15:27:14.781Z,100071.44
2023-04-14T15:29:59.707Z,100073.34
2023-04-14T15:32:45.089Z,100080.75
2023-04-14T15:35:29.931Z,100094.75
2023-04-14T15:38:16.263Z,100071.78
2023-04-14T15:41:01.357Z,100104.72
2023-04-14T15:43:46.586Z,100083.78
2023-04-14T15:46:31.944Z,100104.59
2023-04-14T15:49:17.339Z,100111.72
2023-04-14T15:52:02.670Z,100124.09
2023-04-14T15:54:47.785Z,100099.16
2023-04-14T15:57:32.861Z,100104.13
2023-04-14T16:00:18.820Z,100096.41
2023-04-14T16:03:04.710Z,100126.84
2023-04-14T16:05:49.919Z,100117.38
2023-04-14T16:08:34.852Z,100118.53
2023-04-14T16:11:20.098Z,100129.00
2023-04-14T16:14:05.248Z,100122.66
2023-04-14T16:16:50.391Z,100123.94
2023-04-14T16:19:35.331Z,100111.06
2023-04-14T16:22:20.444Z,100124.59
2023-04-14T16:25:06.979Z,100119.09
2023-04-14T16:27:52.157Z,100122.41
2023-04-14T16:30:37.785Z,100122.63
2023-04-14T16:33:24.534Z,100112.63
2023-04-14T16:36:09.683Z,100112.53
2023-04-14T16:38:55.341Z,100117.41
2023-04-14T16:41:40.164Z,100109.69
2023-04-14T16:44:25.238Z,100101.34
2023-04-14T16:47:10.361Z,100112.28
2023-04-14T16:49:55.903Z,100115.28
2023-04-14T16:52:41.136Z,100110.44
2023-04-14T16:55:26.097Z,100117.91
2023-04-14T16:58:11.080Z,100099.78
2023-04-14T17:00:56.264Z,100127.97
2023-04-14T17:03:42.409Z,100128.22
2023-04-14T17:06:28.024Z,100126.44
2023-04-14T17:09:13.086Z,100133.03
2023-04-14T17:11:58.732Z,100116.13
2023-04-14T17:14:44.976Z,100115.13
2023-04-14T17:17:31.467Z,100140.69
2023-04-14T17:20:16.851Z,100146.66
2023-04-14T17:23:01.815Z,100150.22
2023-04-14T17:25:48.349Z,100148.72
2023-04-14T17:28:34.856Z,100146.66
2023-04-14T17:31:20.965Z,100139.88
2023-04-14T17:34:10.553Z,100141.38
2023-04-14T17:36:56.385Z,100149.72
2023-04-14T17:39:42.481Z,100147.66
2023-04-14T17:42:27.881Z,100157.13
2023-04-14T17:45:13.189Z,100162.59
2023-04-14T17:47:58.186Z,100152.81
2023-04-14T17:50:47.591Z,100158.03
2023-04-14T17:53:32.453Z,100162.53
2023-04-14T17:56:18.019Z,100163.69
2023-04-14T17:59:03.235Z,100156.78
2023-04-14T18:01:48.813Z,100160.88
2023-04-14T18:04:33.973Z,100158.75
2023-04-14T18:07:19.755Z,100153.72
2023-04-14T18:10:06.424Z,100159.19
2023-04-14T18:12:51.976Z,100162.53
2023-04-14T18:15:40.277Z,100167.75
2023-04-14T18:18:26.055Z,100166.09
2023-04-14T18:21:12.305Z,100166.50
2023-04-14T18:26:45.545Z,100162.25
2023-04-14T18:29:30.880Z,100181.88
2023-04-14T18:32:16.051Z,100177.09
2023-04-14T18:35:01.585Z,100182.75
2023-04-14T18:37:47.074Z,100177.78
2023-04-14T18:40:32.227Z,100183.22
2023-04-14T18:43:18.570Z,100173.63
2023-04-14T18:46:03.872Z,100199.72
2023-04-14T18:48:49.451Z,100181.13
2023-04-14T18:51:41.168Z,100192.00
2023-04-14T18:54:26.269Z,100199.63
2023-04-14T18:57:11.698Z,100210.81
2023-04-14T18:59:56.875Z,100204.09
2023-04-14T19:02:42.768Z,100195.13
2023-04-14T19:05:29.780Z,100215.38
2023-04-14T19:08:15.124Z,100221.34
2023-04-14T19:11:00.406Z,100216.84
2023-04-14T19:13:45.446Z,100212.56
2023-04-14T19:16:31.036Z,100215.56
2023-04-14T19:19:16.712Z,100221.00
2023-04-14T19:22:01.989Z,100218.31
2023-04-14T19:24:47.921Z,100227.06
2023-04-14T19:27:35.242Z,100228.09
2023-04-14T19:30:20.679Z,100228.84
2023-04-14T19:33:07.114Z,100217.47
2023-04-14T19:35:52.893Z,100216.63
2023-04-14T19:38:38.421Z,100233.31
2023-04-14T19:41:24.323Z,100243.66
2023-04-14T19:44:10.072Z,100237.28
2023-04-14T19:46:55.634Z,100251.41
2023-04-14T19:49:41.969Z,100250.97
2023-04-14T19:52:28.246Z,100251.78
2023-04-14T19:55:13.683Z,100256.31
2023-04-14T19:57:58.897Z,100259.75
2023-04-14T20:00:45.159Z,100244.38
2023-04-14T20:03:33.082Z,100258.69
2023-04-14T20:06:19.711Z,100261.53
2023-04-14T20:09:05.303Z,100257.97
2023-04-14T20:11:50.374Z,100266.53
2023-04-14T20:14:35.369Z,100266.00
2023-04-14T20:17:22.734Z,100270.06
2023-04-14T20:20:08.852Z,100268.81
2023-04-14T20:22:55.543Z,100280.91
2023-04-14T20:25:42.720Z,100267.63
2023-04-14T20:28:27.755Z,100289.69
2023-04-14T20:31:13.500Z,100285.28
2023-04-14T20:33:58.480Z,100271.72
2023-04-14T20:36:44.885Z,100296.34
2023-04-14T20:39:29.695Z,100289.84
2023-04-14T20:42:16.088Z,100307.53
2023-04-14T20:45:01.787Z,100306.50
2023-04-14T20:47:47.423Z,100297.31
2023-04-14T20:50:33.481Z,100313.38
2023-04-14T20:53:19.231Z,100303.91
2023-04-14T20:56:04.544Z,100302.53
2023-04-14T20:58:49.904Z,100314.53
2023-04-14T21:01:35.036Z,100326.44
2023-04-14T21:04:20.350Z,100320.38
2023-04-14T21:07:06.385Z,100324.16
2023-04-14T21:09:51.573Z,100326.38
2023-04-14T21:14:36.045Z,100325.13
2023-04-14T21:15:54.509Z,100332.66
2023-04-14T21:18:42.325Z,100315.44
2023-04-14T21:21:27.987Z,100329.75
2023-04-14T21:24:13.693Z,100331.31
2023-04-14T21:26:59.252Z,100338.31
2023-04-14T21:29:44.708Z,100337.28
2023-04-14T21:32:29.944Z,100334.13
2023-04-14T21:35:14.968Z,100346.13
2023-04-14T21:37:59.983Z,100350.41
2023-04-14T21:40:45.687Z,100348.00
2023-04-14T21:43:30.863Z,100353.41
2023-04-14T21:46:16.100Z,100361.03
2023-04-14T21:49:01.763Z,100358.56
2023-04-14T21:51:47.521Z,100357.69
2023-04-14T21:54:32.785Z,100346.75
2023-04-14T21:57:42.951Z,100372.44
2023-04-14T22:00:26.349Z,100355.78
2023-04-14T22:03:12.115Z,100375.53
2023-04-14T22:06:06.268Z,100360.56
2023-04-14T22:08:51.558Z,100378.81
2023-04-14T22:11:37.639Z,100384.13
2023-04-14T22:14:22.649Z,100383.75
2023-04-14T22:17:08.415Z,100389.59
2023-04-14T22:19:53.746Z,100392.00
2023-04-14T22:22:38.908Z,100384.09
2023-04-14T22:25:24.500Z,100386.44
2023-04-14T22:28:09.742Z,100388.84
2023-04-14T22:30:54.908Z,100383.94
2023-04-14T22:33:40.227Z,100398.19
2023-04-14T22:36:25.702Z,100410.28
2023-04-14T22:39:11.136Z,100412.13
2023-04-14T22:41:56.614Z,100399.41
2023-04-14T22:44:42.640Z,100417.19
2023-04-14T22:47:27.604Z,100414.75
2023-04-14T22:50:12.768Z,100413.72
2023-04-14T22:52:58.607Z,100423.59
2023-04-14T22:55:44.259Z,100420.16
2023-04-14T22:58:32.013Z,100424.47
2023-04-14T23:01:22.326Z,100421.84
2023-04-14T23:04:08.176Z,100432.38
2023-04-14T23:06:53.564Z,100441.22
2023-04-14T23:09:38.371Z,100432.56
2023-04-14T23:12:23.500Z,100415.16
2023-04-14T23:15:09.324Z,100440.28
2023-04-14T23:17:54.975Z,100439.84
2023-04-14T23:20:40.282Z,100430.63
2023-04-14T23:23:31.035Z,100443.28
2023-04-14T23:26:17.290Z,100448.41
2023-04-14T23:29:02.932Z,100456.13
2023-04-14T23:31:48.143Z,100456.44
2023-04-14T23:34:33.226Z,100457.34
2023-04-14T23:37:18.342Z,100458.38
2023-04-14T23:40:07.971Z,100455.88
2023-04-14T23:42:55.965Z,100463.78
2023-04-14T23:45:41.436Z,100470.13
2023-04-14T23:48:26.872Z,100470.00
2023-04-14T23:51:18.023Z,100467.31
2023-04-14T23:54:07.509Z,100470.22
2023-04-14T23:56:52.740Z,100464.72
2023-04-14T23:59:38.156Z,100450.56
